Time;durP1;ratioP1;P1;durP2;ratioP2;P2;SDS_P1;SDS_P2;PMS_P1;PMS_P2;Temp;Humidity;BMP_temperature;BMP_pressure;BME280_temperature;BME280_humidity;BME280_pressure;Samples;Min_cycle;Max_cycle;Signal;HPM_P1;HPM_P2
2021/11/08 00:00:46;;;;;;;24.67;2.88;;;;;;;6.56;100.00;102135.97;5025274;28;20018;-73
2021/11/08 00:03:14;;;;;;;13.00;2.72;;;;;;;6.56;100.00;102126.38;5023432;28;20046;-73
2021/11/08 00:05:42;;;;;;;19.13;3.10;;;;;;;6.58;100.00;102123.88;5029719;28;21701;-74
2021/11/08 00:08:08;;;;;;;17.80;2.58;;;;;;;6.54;100.00;102124.53;5030101;28;20084;-73
2021/11/08 00:10:36;;;;;;;12.18;2.13;;;;;;;6.49;100.00;102121.66;5027197;28;20469;-74
2021/11/08 00:13:05;;;;;;;10.70;2.08;;;;;;;6.45;100.00;102117.06;5030776;28;20553;-73
2021/11/08 00:15:50;;;;;;;13.70;2.00;;;;;;;6.38;100.00;102113.22;5030100;28;20021;-74
2021/11/08 00:20:49;;;;;;;15.27;3.03;;;;;;;6.26;100.00;102125.63;5024616;28;20037;-73
2021/11/08 00:23:15;;;;;;;12.25;2.38;;;;;;;6.21;100.00;102124.47;5021121;28;20021;-73
2021/11/08 00:25:42;;;;;;;15.35;2.88;;;;;;;6.19;100.00;102119.16;5025978;28;20046;-73
2021/11/08 00:28:14;;;;;;;16.98;3.00;;;;;;;6.24;100.00;102119.44;5034217;28;20052;-73
2021/11/08 00:30:41;;;;;;;12.50;2.30;;;;;;;6.29;100.00;102120.56;5027701;28;20060;-74
2021/11/08 00:33:08;;;;;;;19.77;3.33;;;;;;;6.33;100.00;102122.53;5029266;28;20052;-73
2021/11/08 00:35:36;;;;;;;17.45;2.90;;;;;;;6.37;100.00;102128.84;5025882;28;20022;-73
2021/11/08 00:38:02;;;;;;;10.50;2.30;;;;;;;6.40;100.00;102129.91;5024770;28;20515;-72
2021/11/08 00:40:27;;;;;;;15.43;2.90;;;;;;;6.52;100.00;102128.78;5028835;28;20061;-73
2021/11/08 00:42:53;;;;;;;15.18;2.63;;;;;;;6.52;100.00;102134.00;5034224;28;20025;-74
2021/11/08 00:45:20;;;;;;;18.27;3.15;;;;;;;6.55;100.00;102134.16;5034950;28;20389;-73
2021/11/08 00:47:45;;;;;;;25.17;3.10;;;;;;;6.60;100.00;102142.28;5036719;28;20028;-72
2021/11/08 00:50:12;;;;;;;12.32;3.40;;;;;;;6.60;100.00;102143.16;5037645;28;20427;-74
2021/11/08 00:52:37;;;;;;;19.08;3.30;;;;;;;6.61;100.00;102142.34;5021027;28;20478;-74
2021/11/08 00:55:03;;;;;;;19.20;3.20;;;;;;;6.62;100.00;102141.53;5018851;28;20049;-74
2021/11/08 00:57:33;;;;;;;16.48;2.58;;;;;;;6.63;100.00;102148.53;5031900;28;20040;-73
2021/11/08 00:59:59;;;;;;;15.07;3.35;;;;;;;6.65;100.00;102143.41;5033847;28;20030;-73
2021/11/08 01:02:26;;;;;;;20.50;3.67;;;;;;;6.55;100.00;102136.78;5026365;28;20120;-74
2021/11/08 01:04:53;;;;;;;24.58;3.67;;;;;;;6.49;100.00;102137.34;5032568;28;20030;-75
2021/11/08 01:07:19;;;;;;;26.05;4.10;;;;;;;6.44;100.00;102145.75;5024108;28;20025;-74
2021/11/08 01:09:47;;;;;;;13.60;3.20;;;;;;;6.41;100.00;102139.53;5026708;28;20374;-74
2021/11/08 01:12:13;;;;;;;18.98;2.67;;;;;;;6.36;100.00;102143.63;5022441;28;20030;-74
2021/11/08 01:14:39;;;;;;;11.57;2.70;;;;;;;6.28;100.00;102131.88;5023160;28;20036;-74
2021/11/08 01:17:06;;;;;;;19.73;3.65;;;;;;;6.26;100.00;102146.56;5026699;28;20033;-74
2021/11/08 01:19:33;;;;;;;12.10;2.97;;;;;;;6.23;100.00;102146.38;5038285;28;20026;-74
2021/11/08 01:22:07;;;;;;;21.30;3.50;;;;;;;6.20;100.00;102141.88;5023199;28;20528;-73
2021/11/08 01:24:38;;;;;;;17.67;3.53;;;;;;;6.19;100.00;102150.53;5032632;28;20050;-74
2021/11/08 01:27:05;;;;;;;16.30;3.03;;;;;;;6.21;100.00;102142.78;5036301;28;20426;-73
2021/11/08 01:29:32;;;;;;;19.35;3.75;;;;;;;6.20;100.00;102147.13;5020833;28;20114;-72
2021/11/08 01:32:00;;;;;;;21.85;3.78;;;;;;;6.24;100.00;102150.81;5026148;28;20059;-73
2021/11/08 01:34:26;;;;;;;16.25;3.95;;;;;;;6.28;100.00;102147.56;5028034;28;20026;-73
2021/11/08 01:36:54;;;;;;;17.80;4.47;;;;;;;6.34;100.00;102140.03;5017147;28;20025;-73
2021/11/08 01:39:24;;;;;;;17.63;4.03;;;;;;;6.36;100.00;102146.25;5031237;28;20025;-74
2021/11/08 01:41:49;;;;;;;17.95;3.17;;;;;;;6.37;100.00;102144.53;5024637;28;20030;-73
2021/11/08 01:44:16;;;;;;;11.35;2.53;;;;;;;6.34;100.00;102147.88;5033164;28;20736;-73
2021/11/08 01:46:42;;;;;;;20.08;3.58;;;;;;;6.32;100.00;102141.69;5022748;28;20408;-73
2021/11/08 01:49:08;;;;;;;18.40;3.53;;;;;;;6.29;100.00;102146.72;5032065;28;20385;-74
2021/11/08 01:51:35;;;;;;;13.38;3.42;;;;;;;6.20;100.00;102151.41;5016660;28;20030;-74
2021/11/08 01:54:03;;;;;;;13.07;3.10;;;;;;;6.14;100.00;102145.88;5023482;28;20033;-74
2021/11/08 01:56:28;;;;;;;17.58;3.67;;;;;;;6.11;100.00;102145.72;5017103;28;20030;-73
2021/11/08 01:58:55;;;;;;;23.33;4.07;;;;;;;6.10;100.00;102147.41;5024770;28;20029;-73
2021/11/08 02:01:21;;;;;;;21.88;3.40;;;;;;;6.05;100.00;102138.41;5028296;28;20061;-72
2021/11/08 02:03:47;;;;;;;21.13;3.33;;;;;;;6.01;100.00;102133.81;5030847;28;20042;-75
2021/11/08 02:06:13;;;;;;;14.65;3.70;;;;;;;5.97;100.00;102143.19;5019499;28;20026;-74
2021/11/08 02:08:39;;;;;;;18.95;3.28;;;;;;;5.96;100.00;102136.16;5023979;28;20496;-74
2021/11/08 02:11:06;;;;;;;16.77;3.08;;;;;;;5.95;100.00;102139.56;5016051;28;20018;-74
2021/11/08 02:13:31;;;;;;;21.77;2.90;;;;;;;5.90;100.00;102146.25;5030546;28;20053;-74
2021/11/08 02:15:57;;;;;;;18.15;3.03;;;;;;;5.86;100.00;102144.28;5020121;28;20068;-74
2021/11/08 02:18:23;;;;;;;15.63;4.43;;;;;;;5.78;100.00;102145.56;5024570;28;20013;-75
2021/11/08 02:20:51;;;;;;;16.83;3.13;;;;;;;5.66;100.00;102141.44;5016613;28;20022;-75
2021/11/08 02:23:18;;;;;;;17.35;2.63;;;;;;;5.68;100.00;102149.34;5022976;28;20034;-75
2021/11/08 02:25:45;;;;;;;18.50;3.17;;;;;;;5.56;100.00;102147.84;5014446;28;20090;-74
2021/11/08 02:28:12;;;;;;;16.10;2.90;;;;;;;5.52;100.00;102142.34;5030450;28;20071;-72
2021/11/08 02:30:38;;;;;;;16.92;5.00;;;;;;;5.53;100.00;102134.59;5020605;28;20068;-73
2021/11/08 02:33:07;;;;;;;15.75;2.97;;;;;;;5.50;100.00;102141.38;5024744;28;20025;-73
2021/11/08 02:35:35;;;;;;;19.75;2.90;;;;;;;5.56;100.00;102144.31;5025321;28;20084;-73
2021/11/08 02:38:01;;;;;;;16.60;3.25;;;;;;;5.52;100.00;102142.34;5023890;28;20112;-74
2021/11/08 02:40:29;;;;;;;14.00;3.50;;;;;;;5.50;100.00;102146.59;5029235;28;20037;-73
2021/11/08 02:43:00;;;;;;;17.48;3.35;;;;;;;5.46;100.00;102147.22;5023544;28;20033;-73
2021/11/08 02:45:29;;;;;;;14.75;2.80;;;;;;;5.39;100.00;102151.19;5025678;28;20083;-74
2021/11/08 02:47:55;;;;;;;16.02;2.88;;;;;;;5.30;100.00;102134.97;5021377;28;20038;-73
2021/11/08 02:50:24;;;;;;;16.80;3.28;;;;;;;5.30;100.00;102140.19;5023945;28;20117;-74
2021/11/08 02:52:52;;;;;;;11.88;3.00;;;;;;;5.29;100.00;102146.22;5022596;28;20112;-73
2021/11/08 02:55:23;;;;;;;10.40;2.67;;;;;;;5.31;100.00;102142.00;5031179;28;20463;-74
2021/11/08 02:57:50;;;;;;;16.38;2.85;;;;;;;5.30;100.00;102138.47;5028114;28;20466;-73
2021/11/08 03:00:16;;;;;;;20.02;2.63;;;;;;;5.32;100.00;102147.31;5032524;28;20080;-73
2021/11/08 03:02:42;;;;;;;10.48;2.65;;;;;;;5.27;100.00;102146.13;5029211;28;20381;-74
2021/11/08 03:05:11;;;;;;;10.93;2.97;;;;;;;5.26;100.00;102144.31;5023718;28;20025;-73
2021/11/08 03:07:38;;;;;;;17.52;3.03;;;;;;;5.25;100.00;102139.94;5031186;28;20056;-73
2021/11/08 03:10:23;;;;;;;11.63;4.32;;;;;;;5.29;100.00;102139.31;5033694;28;20461;-73
2021/11/08 03:12:52;;;;;;;17.13;3.05;;;;;;;5.32;100.00;102146.41;5023377;28;20038;-73
2021/11/08 03:17:50;;;;;;;21.63;3.30;;;;;;;5.31;100.00;102147.22;5032768;28;20449;-72
2021/11/08 03:20:18;;;;;;;14.43;3.17;;;;;;;5.31;100.00;102152.44;5026302;28;20053;-73
2021/11/08 03:22:53;;;;;;;16.55;3.08;;;;;;;5.28;100.00;102158.38;5026142;28;20045;-73
2021/11/08 03:27:57;;;;;;;7.45;2.55;;;;;;;5.28;100.00;102147.06;5023070;28;20040;-73
2021/11/08 03:30:27;;;;;;;21.13;4.05;;;;;;;5.28;100.00;102142.72;5020449;28;20026;-73
2021/11/08 03:32:55;;;;;;;14.52;2.83;;;;;;;5.33;100.00;102146.50;5032459;28;21456;-72
2021/11/08 03:35:23;;;;;;;17.20;3.00;;;;;;;5.30;100.00;102151.53;5020984;28;20115;-73
2021/11/08 03:37:50;;;;;;;24.73;3.22;;;;;;;5.23;100.00;102149.38;5017737;28;20369;-73
2021/11/08 03:40:22;;;;;;;12.98;2.95;;;;;;;5.18;100.00;102148.19;5023096;28;20411;-72
2021/11/08 03:42:51;;;;;;;18.42;2.85;;;;;;;5.20;100.00;102157.91;5023411;28;20041;-73
2021/11/08 03:45:17;;;;;;;16.58;3.15;;;;;;;5.22;100.00;102155.38;5027607;28;20104;-74
2021/11/08 03:47:43;;;;;;;17.48;2.90;;;;;;;5.21;100.00;102157.09;5021385;28;20038;-74
2021/11/08 03:50:10;;;;;;;17.77;2.63;;;;;;;5.24;100.00;102156.41;5027879;28;20043;-74
2021/11/08 03:52:37;;;;;;;17.42;2.90;;;;;;;5.26;100.00;102159.97;5024945;28;20469;-73
2021/11/08 03:55:04;;;;;;;18.60;2.50;;;;;;;5.24;100.00;102162.50;5014189;28;20037;-73
2021/11/08 03:57:30;;;;;;;12.10;1.98;;;;;;;5.15;100.00;102161.94;5018861;28;20092;-73
2021/11/08 03:59:55;;;;;;;11.07;2.60;;;;;;;5.10;100.00;102165.09;5017508;28;20025;-74
2021/11/08 04:02:21;;;;;;;11.07;2.60;;;;;;;5.04;100.00;102170.84;5022540;28;20053;-73
2021/11/08 04:04:47;;;;;;;20.38;2.97;;;;;;;5.00;100.00;102172.34;5029976;28;20064;-73
2021/11/08 04:07:12;;;;;;;13.13;2.67;;;;;;;5.05;100.00;102176.16;5031978;28;20029;-72
2021/11/08 04:09:39;;;;;;;8.60;2.35;;;;;;;5.04;100.00;102179.56;5017176;28;20505;-74
2021/11/08 04:12:05;;;;;;;20.23;2.90;;;;;;;5.05;100.00;102181.38;5019144;28;20025;-73
2021/11/08 04:14:30;;;;;;;13.90;2.20;;;;;;;5.05;100.00;102188.31;5016189;28;20550;-73
2021/11/08 04:16:56;;;;;;;13.38;3.00;;;;;;;5.05;100.00;102183.97;5028022;28;20148;-74
2021/11/08 04:19:27;;;;;;;22.52;3.10;;;;;;;5.05;100.00;102189.19;5021817;28;20228;-72
2021/11/08 04:21:53;;;;;;;12.85;2.80;;;;;;;5.05;100.00;102186.59;5031017;28;20435;-73
2021/11/08 04:24:18;;;;;;;16.13;2.65;;;;;;;5.10;100.00;102188.56;5031480;28;20045;-73
2021/11/08 04:26:44;;;;;;;14.20;3.13;;;;;;;5.12;100.00;102193.09;5028628;28;20108;-73
2021/11/08 04:29:09;;;;;;;21.67;2.85;;;;;;;5.19;100.00;102190.03;5025632;28;20659;-73
2021/11/08 04:31:37;;;;;;;15.00;2.60;;;;;;;5.26;100.00;102193.91;5022127;28;20075;-74
2021/11/08 04:34:17;;;;;;;15.73;3.00;;;;;;;5.25;100.00;102189.53;5013617;28;20484;-73
2021/11/08 04:42:39;;;;;;;14.10;2.42;;;;;;;5.18;100.00;102192.53;5020426;28;20038;-73
2021/11/08 04:53:04;;;;;;;12.13;2.60;;;;;;;5.00;100.00;102198.44;5019219;28;20565;-73
2021/11/08 05:22:38;;;;;;;20.95;2.88;;;;;;;5.26;100.00;102214.78;5036413;28;20103;-74
2021/11/08 05:30:36;;;;;;;14.57;2.67;;;;;;;5.45;100.00;102219.41;5032513;28;20033;-72
2021/11/08 05:33:02;;;;;;;14.18;2.83;;;;;;;5.51;100.00;102225.00;5019943;28;20022;-73
2021/11/08 05:35:29;;;;;;;15.07;2.92;;;;;;;5.57;100.00;102230.59;5027038;28;20036;-73
2021/11/08 05:37:56;;;;;;;16.70;3.03;;;;;;;5.62;100.00;102223.03;5031767;28;20029;-73
2021/11/08 05:40:29;;;;;;;14.57;2.85;;;;;;;5.69;100.00;102235.63;5024870;28;20025;-73
2021/11/08 05:42:55;;;;;;;14.93;2.67;;;;;;;5.73;100.00;102235.00;5024993;28;20125;-74
2021/11/08 05:45:20;;;;;;;15.50;2.60;;;;;;;5.77;100.00;102243.03;5027976;28;20057;-73
2021/11/08 05:47:47;;;;;;;15.18;3.05;;;;;;;5.79;100.00;102237.06;5022124;28;20099;-73
2021/11/08 05:50:16;;;;;;;17.80;2.70;;;;;;;5.84;100.00;102234.72;5026373;28;20549;-76
2021/11/08 05:52:43;;;;;;;16.40;3.28;;;;;;;5.86;100.00;102233.09;5025977;28;20116;-73
2021/11/08 05:55:10;;;;;;;17.50;3.03;;;;;;;5.87;100.00;102233.22;5034554;28;20029;-72
2021/11/08 06:49:37;;;;;;;32.65;3.58;;;;;;;6.16;100.00;102264.44;5027882;28;20048;-72
2021/11/08 06:52:04;;;;;;;21.55;3.72;;;;;;;6.21;100.00;102268.22;5027813;28;20433;-70
2021/11/08 06:54:30;;;;;;;19.83;4.68;;;;;;;6.24;100.00;102273.66;5030955;28;20037;-71
2021/11/08 06:57:00;;;;;;;21.70;3.35;;;;;;;6.28;100.00;102270.41;5029900;28;20044;-72
2021/11/08 06:59:27;;;;;;;20.40;3.53;;;;;;;6.32;100.00;102277.63;5030933;28;20025;-71
2021/11/08 07:01:54;;;;;;;15.07;2.92;;;;;;;6.37;100.00;102276.13;5022025;28;20025;-73
2021/11/08 07:04:19;;;;;;;24.15;5.45;;;;;;;6.40;100.00;102275.41;5021836;28;20033;-71
2021/11/08 07:06:46;;;;;;;23.52;4.03;;;;;;;6.44;100.00;102276.50;5014798;28;20092;-72
2021/11/08 07:09:12;;;;;;;14.45;3.78;;;;;;;6.47;100.00;102280.19;5030176;28;20029;-72
2021/11/08 07:11:38;;;;;;;20.90;3.63;;;;;;;6.52;100.00;102285.66;5027579;28;20185;-71
2021/11/08 07:14:08;;;;;;;32.42;3.17;;;;;;;6.54;100.00;102284.06;5030945;28;20465;-72
2021/11/08 07:16:35;;;;;;;12.73;2.78;;;;;;;6.57;100.00;102294.69;5014024;28;20466;-71
2021/11/08 07:19:01;;;;;;;26.45;4.28;;;;;;;6.61;100.00;102298.38;5016825;28;20120;-71
2021/11/08 07:21:26;;;;;;;18.75;3.47;;;;;;;6.64;100.00;102295.94;5032041;28;20112;-71
2021/11/08 07:23:52;;;;;;;17.25;2.92;;;;;;;6.70;100.00;102302.41;5040928;28;20079;-70
2021/11/08 07:26:17;;;;;;;24.90;3.55;;;;;;;6.73;100.00;102305.19;5038048;28;20037;-71
2021/11/08 07:28:43;;;;;;;16.45;3.35;;;;;;;6.78;100.00;102310.66;5031822;28;20103;-72
2021/11/08 07:31:09;;;;;;;27.35;4.22;;;;;;;6.83;100.00;102314.44;5032716;28;20025;-70
2021/11/08 07:33:35;;;;;;;20.75;4.13;;;;;;;6.87;100.00;102316.41;5029490;28;20041;-71
2021/11/08 07:36:00;;;;;;;17.10;3.53;;;;;;;6.93;100.00;102318.47;5031909;28;20037;-71
2021/11/08 07:38:26;;;;;;;32.33;3.70;;;;;;;6.99;100.00;102318.81;5033531;28;20061;-71
2021/11/08 07:40:52;;;;;;;28.42;3.97;;;;;;;7.05;100.00;102327.03;5033885;28;20022;-71
2021/11/08 07:43:18;;;;;;;16.92;3.25;;;;;;;7.11;100.00;102318.59;5031542;28;20040;-70
2021/11/08 07:45:43;;;;;;;18.33;4.47;;;;;;;7.17;100.00;102315.41;5023657;28;20041;-72
2021/11/08 07:48:08;;;;;;;22.10;4.38;;;;;;;7.25;100.00;102325.47;5027163;28;20018;-71
2021/11/08 07:50:35;;;;;;;22.27;4.05;;;;;;;7.31;100.00;102327.53;5027172;28;20404;-72
2021/11/08 07:53:01;;;;;;;19.50;3.28;;;;;;;7.36;100.00;102333.88;5036371;28;20095;-71
2021/11/08 07:55:27;;;;;;;24.52;3.63;;;;;;;7.43;100.00;102330.81;5039059;28;20032;-72
2021/11/08 07:57:52;;;;;;;33.63;4.38;;;;;;;7.51;100.00;102338.16;5035152;28;20025;-71
2021/11/08 08:00:18;;;;;;;21.15;3.60;;;;;;;7.54;100.00;102346.16;5027299;28;20080;-72
2021/11/08 08:02:43;;;;;;;27.88;4.97;;;;;;;7.57;100.00;102344.63;5028537;28;20331;-72
2021/11/08 08:05:09;;;;;;;20.05;3.58;;;;;;;7.62;100.00;102344.84;5030014;28;20052;-72
2021/11/08 08:07:34;;;;;;;21.23;3.97;;;;;;;7.64;100.00;102345.84;5033677;28;20127;-73
2021/11/08 08:10:00;;;;;;;29.13;9.80;;;;;;;7.69;100.00;102359.19;5030990;28;20075;-73
2021/11/08 08:12:25;;;;;;;26.35;5.15;;;;;;;7.73;100.00;102359.44;5032056;28;20396;-73
2021/11/08 08:14:51;;;;;;;23.10;4.38;;;;;;;7.76;100.00;102361.34;5035413;28;20037;-72
2021/11/08 08:17:16;;;;;;;23.02;5.07;;;;;;;7.80;100.00;102357.13;5029197;28;20530;-72
2021/11/08 08:19:42;;;;;;;27.73;4.53;;;;;;;7.82;100.00;102360.75;5037474;28;20049;-73
2021/11/08 08:22:08;;;;;;;16.90;4.47;;;;;;;7.84;100.00;102365.25;5036877;28;20034;-74
2021/11/08 08:24:33;;;;;;;16.77;4.10;;;;;;;7.86;100.00;102358.34;5032562;28;20051;-73
2021/11/08 08:27:03;;;;;;;28.13;4.70;;;;;;;7.89;100.00;102363.75;5027672;28;20461;-72
2021/11/08 08:29:29;;;;;;;30.83;4.65;;;;;;;7.92;100.00;102373.50;5027023;28;20036;-73
2021/11/08 08:31:55;;;;;;;26.10;4.78;;;;;;;7.94;100.00;102378.00;5030671;28;20025;-72
2021/11/08 08:34:20;;;;;;;36.72;5.40;;;;;;;7.94;100.00;102379.72;5029159;28;20121;-72
2021/11/08 08:36:48;;;;;;;21.63;3.88;;;;;;;7.99;100.00;102374.72;5017299;28;20030;-72
2021/11/08 08:39:14;;;;;;;32.53;4.72;;;;;;;7.99;100.00;102367.78;5026642;28;20022;-72
2021/11/08 08:41:39;;;;;;;22.60;4.43;;;;;;;8.03;100.00;102368.81;5031690;28;20032;-72
2021/11/08 08:44:07;;;;;;;26.15;4.13;;;;;;;8.09;100.00;102377.88;5036156;28;20022;-72
2021/11/08 08:46:33;;;;;;;22.50;3.75;;;;;;;8.17;100.00;102374.78;5027813;28;20449;-72
2021/11/08 08:48:59;;;;;;;24.45;4.45;;;;;;;8.24;100.00;102374.25;5038889;28;20108;-73
2021/11/08 08:51:25;;;;;;;27.63;4.40;;;;;;;8.35;100.00;102375.69;5036248;28;20025;-73
2021/11/08 08:53:51;;;;;;;22.20;3.90;;;;;;;8.48;100.00;102378.97;5031529;28;20068;-73
2021/11/08 08:56:18;;;;;;;17.23;3.25;;;;;;;8.61;100.00;102368.25;5038729;28;20052;-73
2021/11/08 08:58:44;;;;;;;24.85;4.32;;;;;;;8.74;100.00;102370.66;5047334;28;20060;-73
2021/11/08 09:01:09;;;;;;;19.73;3.65;;;;;;;8.86;100.00;102369.47;5035037;28;20529;-73
2021/11/08 09:03:35;;;;;;;13.68;3.42;;;;;;;8.99;100.00;102366.56;5027993;28;20026;-72
2021/11/08 09:06:01;;;;;;;24.85;3.55;;;;;;;9.09;100.00;102366.19;5050909;28;20028;-73
2021/11/08 09:08:27;;;;;;;16.58;4.15;;;;;;;9.17;100.00;102360.41;5033577;28;20033;-72
2021/11/08 09:10:52;;;;;;;21.77;4.18;;;;;;;9.20;100.00;102371.06;5029185;28;20049;-72
2021/11/08 09:13:18;;;;;;;23.92;3.53;;;;;;;9.24;100.00;102370.38;5034267;28;20473;-72
2021/11/08 09:15:45;;;;;;;19.52;3.45;;;;;;;9.29;100.00;102371.47;5046081;28;20021;-72
2021/11/08 09:18:13;;;;;;;19.95;3.00;;;;;;;9.35;100.00;102376.13;5045841;28;20079;-70
2021/11/08 09:20:41;;;;;;;16.33;2.90;;;;;;;9.39;99.98;102384.22;5034921;28;20457;-72
2021/11/08 09:23:06;;;;;;;19.48;3.58;;;;;;;9.42;99.63;102384.34;5036398;28;20029;-72
2021/11/08 09:25:32;;;;;;;27.23;4.88;;;;;;;9.49;99.38;102387.28;5033420;28;20127;-72
2021/11/08 09:28:00;;;;;;;16.52;4.97;;;;;;;9.52;98.32;102390.03;5034009;28;20485;-72
2021/11/08 09:30:29;;;;;;;21.42;4.78;;;;;;;9.56;98.41;102390.25;5038383;28;20060;-71
2021/11/08 09:32:55;;;;;;;36.58;5.30;;;;;;;9.60;97.74;102386.94;5029235;28;20569;-71
2021/11/08 09:35:22;;;;;;;23.65;5.10;;;;;;;9.66;97.37;102383.69;5042074;28;20031;-71
2021/11/08 09:37:48;;;;;;;15.43;4.28;;;;;;;9.68;96.67;102382.00;5027379;28;20187;-72
2021/11/08 09:40:18;;;;;;;18.55;5.18;;;;;;;9.74;96.47;102384.00;5035527;28;20079;-73
2021/11/08 09:42:47;;;;;;;18.75;4.63;;;;;;;9.78;96.32;102384.25;5043687;28;20082;-73
2021/11/08 09:45:13;;;;;;;17.40;4.32;;;;;;;9.84;95.68;102386.22;5047443;28;20083;-72
2021/11/08 09:47:40;;;;;;;28.13;4.68;;;;;;;9.87;95.15;102374.97;5034459;28;20473;-73
2021/11/08 09:50:10;;;;;;;16.05;3.85;;;;;;;9.93;95.43;102383.13;5035361;28;20029;-73
2021/11/08 09:52:39;;;;;;;23.10;3.90;;;;;;;9.98;95.47;102385.94;5029762;28;20041;-75
2021/11/08 09:55:09;;;;;;;22.42;3.95;;;;;;;9.99;95.08;102386.00;5041473;28;20350;-72
2021/11/08 09:57:35;;;;;;;16.88;3.95;;;;;;;10.04;94.95;102383.59;5025501;28;20539;-73
2021/11/08 10:00:13;;;;;;;25.05;3.88;;;;;;;10.07;95.49;102387.25;5040118;28;20116;-72
2021/11/08 10:02:39;;;;;;;13.93;3.25;;;;;;;10.08;94.93;102388.16;5035448;28;20432;-74
2021/11/08 10:05:04;;;;;;;20.40;3.70;;;;;;;10.09;94.70;102390.84;5027419;28;20037;-73
2021/11/08 10:07:30;;;;;;;23.33;2.92;;;;;;;10.08;94.89;102386.41;5030515;28;20030;-74
2021/11/08 10:09:55;;;;;;;30.50;4.90;;;;;;;10.08;95.84;102399.56;5030279;28;20022;-72
2021/11/08 10:12:21;;;;;;;17.23;3.45;;;;;;;10.09;96.80;102397.81;5032030;28;20108;-72
2021/11/08 10:14:46;;;;;;;17.10;3.55;;;;;;;10.09;97.05;102401.38;5038695;28;20037;-72
2021/11/08 10:17:11;;;;;;;15.93;3.05;;;;;;;10.12;97.62;102400.63;5044983;28;20033;-72
2021/11/08 10:19:40;;;;;;;20.27;3.80;;;;;;;10.15;98.70;102405.06;5031876;28;20043;-74
2021/11/08 10:22:06;;;;;;;19.85;3.50;;;;;;;10.18;98.85;102399.97;5037369;28;20501;-71
2021/11/08 10:24:36;;;;;;;19.90;3.40;;;;;;;10.22;99.00;102404.53;5029872;28;20496;-73
2021/11/08 10:27:08;;;;;;;22.15;3.38;;;;;;;10.27;98.64;102408.28;5033784;28;20107;-72
2021/11/08 10:29:33;;;;;;;15.88;3.53;;;;;;;10.29;97.70;102406.59;5035311;28;20065;-73
2021/11/08 10:32:03;;;;;;;16.60;2.83;;;;;;;10.36;94.90;102394.63;5030909;28;20107;-73
2021/11/08 10:34:29;;;;;;;15.65;2.92;;;;;;;10.36;94.45;102385.00;5049550;28;20376;-71
2021/11/08 10:37:00;;;;;;;19.40;3.80;;;;;;;10.36;91.48;102385.00;5032527;28;20029;-72
2021/11/08 10:39:28;;;;;;;14.73;2.88;;;;;;;10.43;91.69;102387.06;5031267;28;20386;-72
2021/11/08 10:41:55;;;;;;;12.48;3.08;;;;;;;10.45;91.37;102377.47;5024524;28;20033;-71
2021/11/08 10:44:23;;;;;;;20.63;2.97;;;;;;;10.51;91.08;102368.94;5029533;28;20029;-71
2021/11/08 10:47:01;;;;;;;17.08;3.58;;;;;;;10.58;89.13;102367.47;5025517;28;20072;-74
2021/11/08 10:49:33;;;;;;;21.38;3.10;;;;;;;10.66;88.09;102368.66;5023211;28;20478;-72
2021/11/08 10:52:00;;;;;;;21.17;2.83;;;;;;;10.74;88.22;102367.28;5035996;28;20033;-73
2021/11/08 10:54:29;;;;;;;21.48;3.30;;;;;;;10.80;87.23;102371.88;5026251;28;20037;-72
2021/11/08 10:57:00;;;;;;;17.58;2.50;;;;;;;10.89;85.13;102360.81;5033250;28;20021;-72
2021/11/08 10:59:29;;;;;;;25.80;3.20;;;;;;;10.95;85.30;102367.22;5040777;28;20037;-71
2021/11/08 11:01:58;;;;;;;11.00;2.33;;;;;;;10.96;84.14;102362.88;5035977;28;20432;-72
2021/11/08 11:04:31;;;;;;;16.02;3.58;;;;;;;11.02;84.06;102360.47;5037461;28;20067;-73
2021/11/08 11:06:57;;;;;;;15.07;3.13;;;;;;;11.01;82.19;102366.56;5039744;28;20037;-73
2021/11/08 11:09:26;;;;;;;20.15;3.03;;;;;;;11.03;82.66;102374.50;5033373;28;20029;-73
2021/11/08 11:12:12;;;;;;;18.33;4.47;;;;;;;11.00;82.16;102370.06;5031351;28;20434;-73
2021/11/08 11:14:50;;;;;;;15.88;3.00;;;;;;;11.04;81.84;102369.34;5028042;28;20030;-73
2021/11/08 11:17:19;;;;;;;17.00;3.33;;;;;;;11.04;81.99;102382.50;5034633;28;20060;-73
2021/11/08 11:19:45;;;;;;;18.77;3.08;;;;;;;11.01;80.83;102376.22;5031929;28;20037;-72
2021/11/08 11:22:15;;;;;;;20.27;3.10;;;;;;;11.06;81.44;102375.53;5031808;28;20059;-74
2021/11/08 11:24:45;;;;;;;16.65;2.88;;;;;;;11.07;80.40;102377.34;5018748;28;20587;-73
2021/11/08 11:27:24;;;;;;;16.83;2.85;;;;;;;11.06;81.02;102380.81;5031129;28;20018;-73
2021/11/08 11:29:50;;;;;;;14.00;2.92;;;;;;;11.12;80.93;102386.34;5032200;28;20034;-73
2021/11/08 11:32:19;;;;;;;15.00;2.40;;;;;;;11.19;80.82;102381.28;5037586;28;20029;-73
2021/11/08 11:34:46;;;;;;;14.02;2.88;;;;;;;11.18;79.68;102380.41;5045966;28;20029;-74
2021/11/08 11:37:16;;;;;;;12.70;3.75;;;;;;;11.18;79.68;102383.03;5042582;28;20029;-74
2021/11/08 11:39:42;;;;;;;15.00;3.30;;;;;;;11.21;79.51;102379.63;5025972;28;20033;-74
2021/11/08 11:42:08;;;;;;;19.63;3.20;;;;;;;11.20;79.09;102380.47;5034628;28;20049;-74
2021/11/08 11:44:35;;;;;;;16.58;2.45;;;;;;;11.19;79.55;102390.09;5035655;28;20029;-74
2021/11/08 11:47:01;;;;;;;14.27;2.13;;;;;;;11.19;79.78;102387.47;5042351;28;20017;-73
2021/11/08 11:49:26;;;;;;;17.15;2.83;;;;;;;11.24;79.92;102390.28;5047206;28;20029;-74
2021/11/08 11:51:55;;;;;;;16.45;3.10;;;;;;;11.27;80.96;102396.56;5053699;28;20020;-73
2021/11/08 11:54:25;;;;;;;17.27;2.75;;;;;;;11.24;78.66;102377.09;5037165;28;20471;-72
2021/11/08 11:56:53;;;;;;;13.75;2.38;;;;;;;11.30;79.32;102374.72;5044437;28;20108;-73
2021/11/08 11:59:20;;;;;;;15.77;2.83;;;;;;;11.32;80.05;102367.75;5044547;28;20025;-74
2021/11/08 12:01:46;;;;;;;15.25;3.28;;;;;;;11.33;80.13;102379.19;5036298;28;20108;-73
2021/11/08 12:04:12;;;;;;;13.13;2.50;;;;;;;11.31;79.49;102365.94;5033338;28;20111;-74
2021/11/08 12:06:41;;;;;;;15.85;2.88;;;;;;;11.33;79.49;102377.47;5040553;28;20029;-74
2021/11/08 12:09:15;;;;;;;14.57;3.38;;;;;;;11.31;79.26;102373.84;5042749;28;20867;-74
2021/11/08 12:11:44;;;;;;;14.70;3.67;;;;;;;11.31;80.55;102384.38;5046277;28;20060;-74
2021/11/08 12:14:20;;;;;;;16.83;2.97;;;;;;;11.33;79.65;102379.19;5052989;28;20056;-73
2021/11/08 12:16:55;;;;;;;17.02;3.05;;;;;;;11.31;79.61;102373.84;5036091;28;20076;-74
2021/11/08 12:19:23;;;;;;;17.60;3.28;;;;;;;11.34;79.76;102374.00;5033577;28;20416;-73
2021/11/08 12:21:50;;;;;;;26.95;3.22;;;;;;;11.25;79.55;102374.53;5038220;28;20035;-73
2021/11/08 12:24:30;;;;;;;18.13;2.80;;;;;;;11.21;79.82;102364.69;5035308;28;20482;-73
2021/11/08 12:27:07;;;;;;;16.08;2.67;;;;;;;11.21;80.10;102369.09;5036416;28;20037;-73
2021/11/08 12:29:33;;;;;;;14.63;2.78;;;;;;;11.20;80.29;102370.81;5035749;28;20128;-74
2021/11/08 12:32:04;;;;;;;11.65;2.42;;;;;;;11.21;80.69;102371.72;5032783;28;20030;-75
2021/11/08 12:34:38;;;;;;;17.25;3.03;;;;;;;11.23;80.91;102367.38;5020551;28;20404;-74
2021/11/08 12:37:03;;;;;;;17.73;2.72;;;;;;;11.24;80.53;102363.94;5036698;28;20930;-73
2021/11/08 12:39:29;;;;;;;12.57;3.22;;;;;;;11.26;80.85;102367.53;5030351;28;20033;-73
2021/11/08 12:42:07;;;;;;;16.02;3.25;;;;;;;11.25;80.40;102366.63;5035843;28;20025;-73
2021/11/08 12:44:37;;;;;;;16.98;4.10;;;;;;;11.25;80.69;102371.00;5054847;28;20060;-73
2021/11/08 12:47:03;;;;;;;11.55;2.53;;;;;;;11.27;80.27;102358.75;5044588;28;20031;-73
2021/11/08 12:49:30;;;;;;;25.92;3.03;;;;;;;11.30;80.77;102369.44;5047424;28;20021;-74
2021/11/08 12:51:59;;;;;;;14.50;2.80;;;;;;;11.30;80.69;102364.16;5043200;28;20032;-73
2021/11/08 12:54:27;;;;;;;14.23;2.70;;;;;;;11.34;80.71;102370.44;5035227;28;20028;-73
2021/11/08 12:56:54;;;;;;;12.90;2.53;;;;;;;11.32;80.08;102357.22;5037076;28;20069;-74
2021/11/08 12:59:23;;;;;;;11.55;2.22;;;;;;;11.35;79.98;102354.69;5043515;28;20021;-74
2021/11/08 13:02:10;;;;;;;14.43;3.25;;;;;;;11.33;80.00;102353.75;5030831;28;20120;-75
2021/11/08 13:04:50;;;;;;;15.70;2.65;;;;;;;11.35;80.34;102352.03;5032788;28;20127;-75